sensor_id;sensor_type;location;lat;lon;timestamp;pressure;altitude;pressure_sealevel;temperature;humidity
30708;BME280;17458;48.958;8.284;2023-04-26T00:02:17;100511.25;;;11.24;73.79
30708;BME280;17458;48.958;8.284;2023-04-26T00:05:02;100513.22;;;11.28;74.00
30708;BME280;17458;48.958;8.284;2023-04-26T00:07:46;100511.56;;;11.30;73.39
30708;BME280;17458;48.958;8.284;2023-04-26T00:10:33;100513.06;;;11.25;73.00
30708;BME280;17458;48.958;8.284;2023-04-26T00:13:17;100500.00;;;11.12;72.95
30708;BME280;17458;48.958;8.284;2023-04-26T00:16:01;100504.72;;;10.99;72.93
30708;BME280;17458;48.958;8.284;2023-04-26T00:18:45;100508.66;;;10.90;72.93
30708;BME280;17458;48.958;8.284;2023-04-26T00:21:29;100507.91;;;10.92;73.18
30708;BME280;17458;48.958;8.284;2023-04-26T00:24:13;100507.41;;;10.83;73.16
30708;BME280;17458;48.958;8.284;2023-04-26T00:26:57;100510.91;;;10.82;73.51
30708;BME280;17458;48.958;8.284;2023-04-26T00:29:41;100507.41;;;10.83;73.47
30708;BME280;17458;48.958;8.284;2023-04-26T00:32:25;100507.41;;;10.83;73.61
30708;BME280;17458;48.958;8.284;2023-04-26T00:35:09;100496.41;;;10.76;73.55
30708;BME280;17458;48.958;8.284;2023-04-26T00:37:53;100495.50;;;10.75;73.64
30708;BME280;17458;48.958;8.284;2023-04-26T00:40:37;100491.97;;;10.58;73.91
30708;BME280;17458;48.958;8.284;2023-04-26T00:43:21;100498.16;;;10.25;74.97
30708;BME280;17458;48.958;8.284;2023-04-26T00:46:06;100506.59;;;10.18;75.92
30708;BME280;17458;48.958;8.284;2023-04-26T00:48:51;100510.03;;;10.32;75.51
30708;BME280;17458;48.958;8.284;2023-04-26T00:51:35;100501.31;;;10.34;75.43
30708;BME280;17458;48.958;8.284;2023-04-26T00:54:20;100498.56;;;10.16;75.67
30708;BME280;17458;48.958;8.284;2023-04-26T00:57:05;100499.41;;;10.32;75.10
30708;BME280;17458;48.958;8.284;2023-04-26T00:59:50;100504.81;;;10.33;74.40
30708;BME280;17458;48.958;8.284;2023-04-26T01:02:34;100502.31;;;10.20;74.74
30708;BME280;17458;48.958;8.284;2023-04-26T01:05:18;100506.19;;;10.26;74.26
30708;BME280;17458;48.958;8.284;2023-04-26T01:08:02;100503.41;;;10.23;74.05
30708;BME280;17458;48.958;8.284;2023-04-26T01:10:48;100507.88;;;10.24;73.84
30708;BME280;17458;48.958;8.284;2023-04-26T01:13:32;100505.28;;;10.26;73.74
30708;BME280;17458;48.958;8.284;2023-04-26T01:16:18;100509.28;;;10.34;73.57
30708;BME280;17458;48.958;8.284;2023-04-26T01:19:08;100505.25;;;10.24;73.67
30708;BME280;17458;48.958;8.284;2023-04-26T01:21:55;100497.72;;;10.17;73.63
30708;BME280;17458;48.958;8.284;2023-04-26T01:24:41;100495.50;;;10.09;73.66
30708;BME280;17458;48.958;8.284;2023-04-26T01:27:26;100490.50;;;10.15;73.26
30708;BME280;17458;48.958;8.284;2023-04-26T01:30:10;100486.28;;;10.02;73.19
30708;BME280;17458;48.958;8.284;2023-04-26T01:32:55;100494.50;;;9.90;73.39
30708;BME280;17458;48.958;8.284;2023-04-26T01:35:39;100485.97;;;9.96;73.36
30708;BME280;17458;48.958;8.284;2023-04-26T01:38:24;100488.75;;;9.99;72.97
30708;BME280;17458;48.958;8.284;2023-04-26T01:41:11;100498.06;;;9.91;73.11
30708;BME280;17458;48.958;8.284;2023-04-26T01:43:55;100494.41;;;9.89;72.44
30708;BME280;17458;48.958;8.284;2023-04-26T01:46:39;100495.66;;;9.79;72.30
30708;BME280;17458;48.958;8.284;2023-04-26T01:49:23;100499.69;;;9.73;72.40
30708;BME280;17458;48.958;8.284;2023-04-26T01:52:07;100502.50;;;9.59;72.29
30708;BME280;17458;48.958;8.284;2023-04-26T01:54:51;100504.03;;;9.40;72.70
30708;BME280;17458;48.958;8.284;2023-04-26T01:57:37;100504.94;;;9.09;73.51
30708;BME280;17458;48.958;8.284;2023-04-26T02:00:21;100504.25;;;9.13;73.90
30708;BME280;17458;48.958;8.284;2023-04-26T02:03:06;100502.06;;;9.21;73.30
30708;BME280;17458;48.958;8.284;2023-04-26T02:05:50;100504.91;;;9.24;73.06
30708;BME280;17458;48.958;8.284;2023-04-26T02:08:35;100505.16;;;9.14;73.17
30708;BME280;17458;48.958;8.284;2023-04-26T02:11:19;100503.63;;;9.17;72.87
30708;BME280;17458;48.958;8.284;2023-04-26T02:14:03;100501.88;;;9.18;72.40
30708;BME280;17458;48.958;8.284;2023-04-26T02:16:47;100505.13;;;9.29;72.15
30708;BME280;17458;48.958;8.284;2023-04-26T02:19:32;100508.81;;;9.16;71.70
30708;BME280;17458;48.958;8.284;2023-04-26T02:22:16;100511.06;;;8.94;72.46
30708;BME280;17458;48.958;8.284;2023-04-26T02:25:00;100511.16;;;8.95;72.34
30708;BME280;17458;48.958;8.284;2023-04-26T02:27:44;100515.88;;;9.01;72.32
30708;BME280;17458;48.958;8.284;2023-04-26T02:30:29;100515.63;;;8.96;72.33
30708;BME280;17458;48.958;8.284;2023-04-26T02:33:14;100512.69;;;8.92;72.40
30708;BME280;17458;48.958;8.284;2023-04-26T02:36:05;100512.00;;;8.79;73.03
30708;BME280;17458;48.958;8.284;2023-04-26T02:38:50;100513.25;;;8.71;73.01
30708;BME280;17458;48.958;8.284;2023-04-26T02:41:35;100509.97;;;8.61;73.56
30708;BME280;17458;48.958;8.284;2023-04-26T02:44:19;100513.44;;;8.74;73.05
30708;BME280;17458;48.958;8.284;2023-04-26T02:47:04;100520.13;;;8.68;73.08
30708;BME280;17458;48.958;8.284;2023-04-26T02:49:48;100502.75;;;8.58;73.73
30708;BME280;17458;48.958;8.284;2023-04-26T02:52:33;100513.44;;;8.74;73.75
30708;BME280;17458;48.958;8.284;2023-04-26T02:55:17;100516.38;;;8.79;73.59
30708;BME280;17458;48.958;8.284;2023-04-26T02:58:01;100514.06;;;8.70;73.59
30708;BME280;17458;48.958;8.284;2023-04-26T03:00:45;100507.41;;;8.47;74.28
30708;BME280;17458;48.958;8.284;2023-04-26T03:03:30;100509.34;;;8.65;73.88
30708;BME280;17458;48.958;8.284;2023-04-26T03:06:14;100509.41;;;8.51;74.17
30708;BME280;17458;48.958;8.284;2023-04-26T03:08:58;100512.50;;;8.59;73.84
30708;BME280;17458;48.958;8.284;2023-04-26T03:11:42;100508.59;;;8.52;73.75
30708;BME280;17458;48.958;8.284;2023-04-26T03:14:26;100512.16;;;8.53;74.00
30708;BME280;17458;48.958;8.284;2023-04-26T03:17:11;100508.84;;;8.42;73.49
30708;BME280;17458;48.958;8.284;2023-04-26T03:19:55;100508.22;;;8.46;74.12
30708;BME280;17458;48.958;8.284;2023-04-26T03:22:40;100502.94;;;8.46;73.96
30708;BME280;17458;48.958;8.284;2023-04-26T03:25:24;100506.47;;;8.32;74.61
30708;BME280;17458;48.958;8.284;2023-04-26T03:28:09;100505.94;;;8.38;75.13
30708;BME280;17458;48.958;8.284;2023-04-26T03:30:53;100512.88;;;8.36;74.82
30708;BME280;17458;48.958;8.284;2023-04-26T03:33:37;100506.25;;;8.29;75.74
30708;BME280;17458;48.958;8.284;2023-04-26T03:36:22;100513.59;;;8.05;75.70
30708;BME280;17458;48.958;8.284;2023-04-26T03:39:06;100530.38;;;8.06;75.91
30708;BME280;17458;48.958;8.284;2023-04-26T03:41:51;100526.66;;;8.17;75.70
30708;BME280;17458;48.958;8.284;2023-04-26T03:44:35;100521.13;;;8.27;75.27
30708;BME280;17458;48.958;8.284;2023-04-26T03:47:19;100515.09;;;8.30;75.09
30708;BME280;17458;48.958;8.284;2023-04-26T03:50:03;100512.16;;;8.38;74.82
30708;BME280;17458;48.958;8.284;2023-04-26T03:52:47;100509.59;;;8.40;74.91
30708;BME280;17458;48.958;8.284;2023-04-26T03:55:32;100501.19;;;8.32;74.83
30708;BME280;17458;48.958;8.284;2023-04-26T03:58:16;100495.16;;;8.35;74.57
30708;BME280;17458;48.958;8.284;2023-04-26T04:01:00;100508.81;;;8.28;74.53
30708;BME280;17458;48.958;8.284;2023-04-26T04:03:44;100500.59;;;8.23;74.65
30708;BME280;17458;48.958;8.284;2023-04-26T04:06:29;100503.44;;;8.26;74.82
30708;BME280;17458;48.958;8.284;2023-04-26T04:09:13;100502.03;;;8.18;74.76
30708;BME280;17458;48.958;8.284;2023-04-26T04:11:58;100504.56;;;8.16;74.87
30708;BME280;17458;48.958;8.284;2023-04-26T04:14:43;100516.44;;;8.08;75.02
30708;BME280;17458;48.958;8.284;2023-04-26T04:17:27;100513.44;;;8.17;74.85
30708;BME280;17458;48.958;8.284;2023-04-26T04:20:12;100515.94;;;8.01;75.13
30708;BME280;17458;48.958;8.284;2023-04-26T04:22:56;100505.31;;;7.86;75.58
30708;BME280;17458;48.958;8.284;2023-04-26T04:25:42;100513.53;;;7.91;75.62
30708;BME280;17458;48.958;8.284;2023-04-26T04:28:29;100507.75;;;7.96;75.82
30708;BME280;17458;48.958;8.284;2023-04-26T04:31:13;100508.66;;;7.97;75.51
30708;BME280;17458;48.958;8.284;2023-04-26T04:33:58;100516.38;;;7.66;76.49
30708;BME280;17458;48.958;8.284;2023-04-26T04:36:42;100510.94;;;7.77;76.32
30708;BME280;17458;48.958;8.284;2023-04-26T04:39:27;100516.44;;;7.80;76.21
30708;BME280;17458;48.958;8.284;2023-04-26T04:42:11;100512.44;;;7.87;76.27
30708;BME280;17458;48.958;8.284;2023-04-26T04:44:56;100519.69;;;8.04;75.56
30708;BME280;17458;48.958;8.284;2023-04-26T04:47:43;100517.53;;;8.12;75.42
30708;BME280;17458;48.958;8.284;2023-04-26T04:50:28;100528.78;;;8.23;75.22
30708;BME280;17458;48.958;8.284;2023-04-26T04:53:13;100533.25;;;8.24;74.35
30708;BME280;17458;48.958;8.284;2023-04-26T04:55:58;100534.50;;;8.15;74.56
30708;BME280;17458;48.958;8.284;2023-04-26T04:58:42;100530.97;;;8.30;74.06
30708;BME280;17458;48.958;8.284;2023-04-26T05:01:26;100539.16;;;8.19;73.90
30708;BME280;17458;48.958;8.284;2023-04-26T05:04:13;100543.25;;;8.42;73.89
30708;BME280;17458;48.958;8.284;2023-04-26T05:06:57;100552.91;;;8.70;72.97
30708;BME280;17458;48.958;8.284;2023-04-26T05:09:42;100544.28;;;9.03;71.83
30708;BME280;17458;48.958;8.284;2023-04-26T05:12:26;100553.50;;;9.55;69.39
30708;BME280;17458;48.958;8.284;2023-04-26T05:15:11;100539.91;;;9.80;68.75
30708;BME280;17458;48.958;8.284;2023-04-26T05:17:56;100543.56;;;9.99;67.64
30708;BME280;17458;48.958;8.284;2023-04-26T05:20:42;100546.28;;;10.47;66.72
30708;BME280;17458;48.958;8.284;2023-04-26T05:23:30;100550.94;;;9.57;67.10
30708;BME280;17458;48.958;8.284;2023-04-26T05:26:15;100556.16;;;10.50;66.93
30708;BME280;17458;48.958;8.284;2023-04-26T05:29:12;100556.03;;;10.81;65.52
30708;BME280;17458;48.958;8.284;2023-04-26T05:32:02;100564.03;;;8.94;69.02
30708;BME280;17458;48.958;8.284;2023-04-26T05:35:05;100567.13;;;8.72;70.64
30708;BME280;17458;48.958;8.284;2023-04-26T05:37:49;100569.34;;;8.94;69.95
30708;BME280;17458;48.958;8.284;2023-04-26T05:40:35;100573.41;;;8.59;70.66
30708;BME280;17458;48.958;8.284;2023-04-26T05:43:20;100562.97;;;8.47;71.19
30708;BME280;17458;48.958;8.284;2023-04-26T05:46:04;100566.13;;;8.70;70.85
30708;BME280;17458;48.958;8.284;2023-04-26T05:48:48;100574.13;;;8.29;72.45
30708;BME280;17458;48.958;8.284;2023-04-26T05:51:32;100574.78;;;8.52;72.54
30708;BME280;17458;48.958;8.284;2023-04-26T05:54:16;100573.84;;;8.24;73.62
30708;BME280;17458;48.958;8.284;2023-04-26T05:57:00;100580.00;;;8.80;73.06
30708;BME280;17458;48.958;8.284;2023-04-26T05:59:45;100579.91;;;8.64;72.82
30708;BME280;17458;48.958;8.284;2023-04-26T06:02:29;100581.41;;;8.46;74.89
30708;BME280;17458;48.958;8.284;2023-04-26T06:05:13;100590.25;;;8.46;74.22
30708;BME280;17458;48.958;8.284;2023-04-26T06:07:59;100590.34;;;9.05;73.76
30708;BME280;17458;48.958;8.284;2023-04-26T06:10:44;100585.28;;;9.39;74.13
30708;BME280;17458;48.958;8.284;2023-04-26T06:13:30;100590.84;;;9.44;73.83
30708;BME280;17458;48.958;8.284;2023-04-26T06:16:14;100594.97;;;9.53;72.99
30708;BME280;17458;48.958;8.284;2023-04-26T06:18:59;100591.78;;;9.30;73.30
30708;BME280;17458;48.958;8.284;2023-04-26T06:21:46;100598.72;;;9.73;72.25
30708;BME280;17458;48.958;8.284;2023-04-26T06:24:31;100587.75;;;9.82;71.83
30708;BME280;17458;48.958;8.284;2023-04-26T06:27:16;100583.78;;;9.90;71.88
30708;BME280;17458;48.958;8.284;2023-04-26T06:30:05;100586.59;;;10.24;69.91
30708;BME280;17458;48.958;8.284;2023-04-26T06:32:52;100585.88;;;10.12;68.24
30708;BME280;17458;48.958;8.284;2023-04-26T06:35:40;100576.19;;;10.77;67.71
30708;BME280;17458;48.958;8.284;2023-04-26T06:38:25;100587.28;;;10.86;65.89
30708;BME280;17458;48.958;8.284;2023-04-26T06:41:10;100585.59;;;11.05;65.57
30708;BME280;17458;48.958;8.284;2023-04-26T06:43:55;100585.63;;;11.22;64.53
30708;BME280;17458;48.958;8.284;2023-04-26T06:46:40;100586.72;;;11.10;63.43
30708;BME280;17458;48.958;8.284;2023-04-26T06:49:25;100578.13;;;10.97;64.16
30708;BME280;17458;48.958;8.284;2023-04-26T06:52:09;100586.00;;;10.78;63.88
30708;BME280;17458;48.958;8.284;2023-04-26T06:54:53;100590.16;;;11.07;61.40
30708;BME280;17458;48.958;8.284;2023-04-26T06:57:38;100587.03;;;11.50;59.73
30708;BME280;17458;48.958;8.284;2023-04-26T07:00:22;100582.06;;;11.75;61.33
30708;BME280;17458;48.958;8.284;2023-04-26T07:03:06;100573.78;;;12.24;59.50
30708;BME280;17458;48.958;8.284;2023-04-26T07:05:50;100573.69;;;12.22;57.77
30708;BME280;17458;48.958;8.284;2023-04-26T07:08:34;100564.25;;;12.29;56.04
30708;BME280;17458;48.958;8.284;2023-04-26T07:11:18;100561.28;;;12.23;55.18
30708;BME280;17458;48.958;8.284;2023-04-26T07:14:03;100566.00;;;12.28;55.32
30708;BME280;17458;48.958;8.284;2023-04-26T07:16:47;100563.59;;;12.73;56.04
30708;BME280;17458;48.958;8.284;2023-04-26T07:19:31;100564.41;;;12.32;56.87
30708;BME280;17458;48.958;8.284;2023-04-26T07:22:15;100563.13;;;12.24;56.59
30708;BME280;17458;48.958;8.284;2023-04-26T07:24:58;100563.22;;;12.85;54.81
30708;BME280;17458;48.958;8.284;2023-04-26T07:27:42;100569.44;;;12.06;55.17
30708;BME280;17458;48.958;8.284;2023-04-26T07:30:26;100564.59;;;12.17;56.01
30708;BME280;17458;48.958;8.284;2023-04-26T07:33:10;100569.00;;;12.17;57.08
30708;BME280;17458;48.958;8.284;2023-04-26T07:35:55;100568.94;;;12.15;56.33
30708;BME280;17458;48.958;8.284;2023-04-26T07:38:40;100555.97;;;12.42;55.66
30708;BME280;17458;48.958;8.284;2023-04-26T07:41:23;100564.22;;;12.67;55.56
30708;BME280;17458;48.958;8.284;2023-04-26T07:44:09;100570.16;;;13.00;55.25
30708;BME280;17458;48.958;8.284;2023-04-26T07:46:53;100569.56;;;12.87;54.63
30708;BME280;17458;48.958;8.284;2023-04-26T07:49:37;100568.19;;;12.56;53.90
30708;BME280;17458;48.958;8.284;2023-04-26T07:52:21;100567.84;;;13.29;53.39
30708;BME280;17458;48.958;8.284;2023-04-26T07:55:05;100560.66;;;13.07;52.93
30708;BME280;17458;48.958;8.284;2023-04-26T07:57:50;100568.16;;;13.36;52.04
30708;BME280;17458;48.958;8.284;2023-04-26T08:00:34;100567.50;;;13.00;53.27
30708;BME280;17458;48.958;8.284;2023-04-26T08:03:21;100567.38;;;13.39;52.92
30708;BME280;17458;48.958;8.284;2023-04-26T08:06:05;100566.06;;;13.50;52.23
30708;BME280;17458;48.958;8.284;2023-04-26T08:08:51;100565.84;;;13.44;51.02
30708;BME280;17458;48.958;8.284;2023-04-26T08:11:36;100567.81;;;13.93;49.72
30708;BME280;17458;48.958;8.284;2023-04-26T08:14:20;100564.22;;;13.92;50.63
30708;BME280;17458;48.958;8.284;2023-04-26T08:17:04;100561.09;;;13.80;49.69
30708;BME280;17458;48.958;8.284;2023-04-26T08:19:48;100570.78;;;14.23;49.27
30708;BME280;17458;48.958;8.284;2023-04-26T08:22:32;100571.81;;;14.26;49.02
30708;BME280;17458;48.958;8.284;2023-04-26T08:25:16;100564.06;;;14.80;46.93
30708;BME280;17458;48.958;8.284;2023-04-26T08:28:00;100581.03;;;14.57;47.25
30708;BME280;17458;48.958;8.284;2023-04-26T08:30:44;100571.13;;;14.78;46.75
30708;BME280;17458;48.958;8.284;2023-04-26T08:33:28;100577.06;;;14.69;47.97
30708;BME280;17458;48.958;8.284;2023-04-26T08:36:13;100577.22;;;14.28;45.98
30708;BME280;17458;48.958;8.284;2023-04-26T08:38:58;100571.88;;;14.50;45.86
30708;BME280;17458;48.958;8.284;2023-04-26T08:41:49;100565.78;;;14.54;45.92
30708;BME280;17458;48.958;8.284;2023-04-26T08:44:35;100561.22;;;15.24;45.29
30708;BME280;17458;48.958;8.284;2023-04-26T08:50:19;100558.63;;;14.53;42.44
30708;BME280;17458;48.958;8.284;2023-04-26T08:53:04;100553.19;;;14.28;42.97
30708;BME280;17458;48.958;8.284;2023-04-26T08:55:49;100552.03;;;14.67;43.88
30708;BME280;17458;48.958;8.284;2023-04-26T08:58:34;100543.59;;;15.56;44.82
30708;BME280;17458;48.958;8.284;2023-04-26T09:01:18;100546.84;;;15.75;43.37
30708;BME280;17458;48.958;8.284;2023-04-26T09:04:04;100550.75;;;15.32;44.01
30708;BME280;17458;48.958;8.284;2023-04-26T09:06:50;100551.91;;;14.64;43.39
30708;BME280;17458;48.958;8.284;2023-04-26T09:09:40;100539.69;;;14.71;44.61
30708;BME280;17458;48.958;8.284;2023-04-26T09:12:25;100544.59;;;15.35;44.60
30708;BME280;17458;48.958;8.284;2023-04-26T09:15:09;100538.47;;;15.12;42.16
30708;BME280;17458;48.958;8.284;2023-04-26T09:17:53;100553.81;;;15.17;40.83
30708;BME280;17458;48.958;8.284;2023-04-26T09:20:37;100543.41;;;15.52;42.55
30708;BME280;17458;48.958;8.284;2023-04-26T09:23:21;100549.22;;;15.39;40.70
30708;BME280;17458;48.958;8.284;2023-04-26T09:26:18;100551.56;;;15.82;40.24
30708;BME280;17458;48.958;8.284;2023-04-26T09:29:14;100542.22;;;16.57;40.23
30708;BME280;17458;48.958;8.284;2023-04-26T09:31:59;100537.81;;;16.28;38.70
30708;BME280;17458;48.958;8.284;2023-04-26T09:34:44;100537.63;;;16.52;39.16
30708;BME280;17458;48.958;8.284;2023-04-26T09:37:31;100532.31;;;16.23;39.85
30708;BME280;17458;48.958;8.284;2023-04-26T09:40:20;100536.50;;;16.15;38.40
30708;BME280;17458;48.958;8.284;2023-04-26T09:43:18;100534.16;;;15.96;40.47
30708;BME280;17458;48.958;8.284;2023-04-26T09:46:02;100528.25;;;16.08;38.57
30708;BME280;17458;48.958;8.284;2023-04-26T09:48:59;100527.22;;;17.28;39.94
30708;BME280;17458;48.958;8.284;2023-04-26T09:51:58;100533.28;;;17.56;37.92
30708;BME280;17458;48.958;8.284;2023-04-26T09:54:50;100535.66;;;18.17;36.45
30708;BME280;17458;48.958;8.284;2023-04-26T09:57:41;100539.50;;;17.19;38.78
30708;BME280;17458;48.958;8.284;2023-04-26T10:00:26;100532.50;;;16.91;37.41
30708;BME280;17458;48.958;8.284;2023-04-26T10:03:10;100530.91;;;16.97;36.64
30708;BME280;17458;48.958;8.284;2023-04-26T10:05:55;100535.41;;;17.00;35.12
30708;BME280;17458;48.958;8.284;2023-04-26T10:08:40;100530.59;;;16.87;34.82
30708;BME280;17458;48.958;8.284;2023-04-26T10:11:25;100531.50;;;16.87;35.64
30708;BME280;17458;48.958;8.284;2023-04-26T10:14:10;100526.28;;;16.62;34.99
30708;BME280;17458;48.958;8.284;2023-04-26T10:16:55;100522.16;;;17.41;35.15
30708;BME280;17458;48.958;8.284;2023-04-26T10:19:41;100509.66;;;17.41;28.78
30708;BME280;17458;48.958;8.284;2023-04-26T10:22:33;100518.31;;;17.64;32.84
30708;BME280;17458;48.958;8.284;2023-04-26T10:25:18;100518.16;;;16.59;30.80
30708;BME280;17458;48.958;8.284;2023-04-26T10:28:03;100515.84;;;16.71;32.90
30708;BME280;17458;48.958;8.284;2023-04-26T10:30:58;100516.44;;;16.61;33.67
30708;BME280;17458;48.958;8.284;2023-04-26T10:33:42;100521.97;;;16.65;35.69
30708;BME280;17458;48.958;8.284;2023-04-26T10:36:26;100515.13;;;16.47;35.93
30708;BME280;17458;48.958;8.284;2023-04-26T10:39:18;100515.13;;;17.46;38.31
30708;BME280;17458;48.958;8.284;2023-04-26T10:42:25;100507.16;;;17.14;35.21
30708;BME280;17458;48.958;8.284;2023-04-26T10:45:27;100514.16;;;17.42;33.59
30708;BME280;17458;48.958;8.284;2023-04-26T10:48:28;100511.47;;;17.42;35.63
30708;BME280;17458;48.958;8.284;2023-04-26T10:51:12;100501.09;;;17.57;33.25
30708;BME280;17458;48.958;8.284;2023-04-26T10:53:57;100505.09;;;17.73;34.35
30708;BME280;17458;48.958;8.284;2023-04-26T10:59:26;100490.81;;;17.04;33.21
30708;BME280;17458;48.958;8.284;2023-04-26T11:02:10;100488.72;;;16.92;33.74
30708;BME280;17458;48.958;8.284;2023-04-26T11:04:53;100479.06;;;16.65;37.03
30708;BME280;17458;48.958;8.284;2023-04-26T11:07:38;100468.25;;;16.95;34.29
30708;BME280;17458;48.958;8.284;2023-04-26T11:10:22;100468.25;;;16.95;35.21
30708;BME280;17458;48.958;8.284;2023-04-26T11:13:06;100450.56;;;17.40;33.23
30708;BME280;17458;48.958;8.284;2023-04-26T11:15:59;100469.69;;;16.51;35.39
30708;BME280;17458;48.958;8.284;2023-04-26T11:18:44;100454.03;;;16.99;34.35
30708;BME280;17458;48.958;8.284;2023-04-26T11:21:29;100459.81;;;17.16;34.72
30708;BME280;17458;48.958;8.284;2023-04-26T11:24:15;100448.00;;;17.82;32.85
30708;BME280;17458;48.958;8.284;2023-04-26T11:26:59;100450.06;;;17.93;34.61
30708;BME280;17458;48.958;8.284;2023-04-26T11:29:43;100452.47;;;17.45;33.72
30708;BME280;17458;48.958;8.284;2023-04-26T11:32:28;100435.91;;;17.25;34.20
30708;BME280;17458;48.958;8.284;2023-04-26T11:35:11;100427.75;;;17.60;34.52
30708;BME280;17458;48.958;8.284;2023-04-26T11:37:59;100430.94;;;17.80;33.22
30708;BME280;17458;48.958;8.284;2023-04-26T11:41:09;100426.53;;;17.08;35.89
30708;BME280;17458;48.958;8.284;2023-04-26T11:43:54;100434.53;;;17.80;34.10
30708;BME280;17458;48.958;8.284;2023-04-26T11:46:38;100427.50;;;18.29;33.54
30708;BME280;17458;48.958;8.284;2023-04-26T11:49:22;100426.88;;;18.89;33.92
30708;BME280;17458;48.958;8.284;2023-04-26T11:52:07;100425.88;;;17.54;33.81
30708;BME280;17458;48.958;8.284;2023-04-26T11:55:12;100425.91;;;17.95;34.11
30708;BME280;17458;48.958;8.284;2023-04-26T11:57:58;100426.78;;;16.83;34.35
30708;BME280;17458;48.958;8.284;2023-04-26T12:00:59;100443.94;;;17.63;33.17
30708;BME280;17458;48.958;8.284;2023-04-26T12:03:49;100436.28;;;17.78;33.28
30708;BME280;17458;48.958;8.284;2023-04-26T12:06:41;100442.59;;;18.22;32.90
30708;BME280;17458;48.958;8.284;2023-04-26T12:09:26;100435.75;;;17.94;36.46
30708;BME280;17458;48.958;8.284;2023-04-26T12:12:14;100432.38;;;18.48;33.93
30708;BME280;17458;48.958;8.284;2023-04-26T12:14:58;100425.19;;;18.94;34.36
30708;BME280;17458;48.958;8.284;2023-04-26T12:18:10;100428.00;;;19.03;32.35
30708;BME280;17458;48.958;8.284;2023-04-26T12:20:57;100423.13;;;18.34;34.07
30708;BME280;17458;48.958;8.284;2023-04-26T12:23:42;100420.25;;;18.70;32.53
30708;BME280;17458;48.958;8.284;2023-04-26T12:26:43;100423.97;;;18.76;36.00
30708;BME280;17458;48.958;8.284;2023-04-26T12:29:28;100424.66;;;18.65;32.44
30708;BME280;17458;48.958;8.284;2023-04-26T12:32:13;100413.47;;;17.61;33.27
30708;BME280;17458;48.958;8.284;2023-04-26T12:34:57;100416.38;;;18.12;33.74
30708;BME280;17458;48.958;8.284;2023-04-26T12:37:41;100416.25;;;18.04;32.75
30708;BME280;17458;48.958;8.284;2023-04-26T12:40:26;100411.66;;;18.44;32.68
30708;BME280;17458;48.958;8.284;2023-04-26T12:43:10;100414.16;;;18.80;32.46
30708;BME280;17458;48.958;8.284;2023-04-26T12:45:54;100415.31;;;18.96;33.54
30708;BME280;17458;48.958;8.284;2023-04-26T12:48:38;100414.97;;;17.87;34.34
30708;BME280;17458;48.958;8.284;2023-04-26T12:51:22;100410.66;;;17.56;33.76
30708;BME280;17458;48.958;8.284;2023-04-26T12:54:06;100412.72;;;17.65;33.84
30708;BME280;17458;48.958;8.284;2023-04-26T12:56:51;100407.13;;;18.88;33.49
30708;BME280;17458;48.958;8.284;2023-04-26T12:59:35;100413.44;;;18.90;31.71
30708;BME280;17458;48.958;8.284;2023-04-26T13:02:19;100402.84;;;19.01;32.21
30708;BME280;17458;48.958;8.284;2023-04-26T13:05:03;100409.03;;;18.94;31.58
30708;BME280;17458;48.958;8.284;2023-04-26T13:07:49;100408.59;;;18.26;33.31
30708;BME280;17458;48.958;8.284;2023-04-26T13:10:33;100409.94;;;18.96;34.40
30708;BME280;17458;48.958;8.284;2023-04-26T13:13:17;100406.59;;;18.14;33.62
30708;BME280;17458;48.958;8.284;2023-04-26T13:16:03;100407.63;;;17.41;35.76
30708;BME280;17458;48.958;8.284;2023-04-26T13:18:47;100401.66;;;18.35;36.32
30708;BME280;17458;48.958;8.284;2023-04-26T13:21:31;100407.09;;;18.87;34.38
30708;BME280;17458;48.958;8.284;2023-04-26T13:24:15;100400.19;;;19.02;33.52
30708;BME280;17458;48.958;8.284;2023-04-26T13:27:00;100404.84;;;19.12;32.96
30708;BME280;17458;48.958;8.284;2023-04-26T13:29:44;100405.69;;;18.14;32.11
30708;BME280;17458;48.958;8.284;2023-04-26T13:32:28;100406.22;;;18.88;32.69
30708;BME280;17458;48.958;8.284;2023-04-26T13:35:12;100403.75;;;18.53;32.58
30708;BME280;17458;48.958;8.284;2023-04-26T13:37:57;100398.16;;;18.41;33.49
30708;BME280;17458;48.958;8.284;2023-04-26T13:40:41;100400.78;;;18.85;35.08
30708;BME280;17458;48.958;8.284;2023-04-26T13:43:25;100395.22;;;19.28;36.49
30708;BME280;17458;48.958;8.284;2023-04-26T13:46:09;100389.03;;;19.34;32.47
30708;BME280;17458;48.958;8.284;2023-04-26T13:48:53;100392.94;;;18.49;32.95
30708;BME280;17458;48.958;8.284;2023-04-26T13:51:37;100396.22;;;18.79;33.54
30708;BME280;17458;48.958;8.284;2023-04-26T13:54:22;100391.50;;;18.66;33.71
30708;BME280;17458;48.958;8.284;2023-04-26T13:57:08;100385.50;;;19.39;33.09
30708;BME280;17458;48.958;8.284;2023-04-26T13:59:52;100384.94;;;19.59;32.93
30708;BME280;17458;48.958;8.284;2023-04-26T14:02:36;100381.59;;;18.18;33.55
30708;BME280;17458;48.958;8.284;2023-04-26T14:05:21;100378.44;;;18.89;34.30
30708;BME280;17458;48.958;8.284;2023-04-26T14:08:06;100380.28;;;18.91;33.04
30708;BME280;17458;48.958;8.284;2023-04-26T14:10:51;100387.72;;;18.58;33.48
30708;BME280;17458;48.958;8.284;2023-04-26T14:13:35;100383.78;;;19.43;32.63
30708;BME280;17458;48.958;8.284;2023-04-26T14:16:20;100394.00;;;19.08;31.65
30708;BME280;17458;48.958;8.284;2023-04-26T14:19:04;100388.25;;;18.87;32.67
30708;BME280;17458;48.958;8.284;2023-04-26T14:21:48;100384.88;;;19.00;32.32
30708;BME280;17458;48.958;8.284;2023-04-26T14:24:32;100386.22;;;18.72;32.12
30708;BME280;17458;48.958;8.284;2023-04-26T14:27:17;100382.25;;;18.52;32.82
30708;BME280;17458;48.958;8.284;2023-04-26T14:30:01;100386.34;;;18.78;33.74
30708;BME280;17458;48.958;8.284;2023-04-26T14:32:45;100382.50;;;19.18;35.58
30708;BME280;17458;48.958;8.284;2023-04-26T14:35:29;100388.31;;;18.90;33.25